Yahata Maru — JL6477 — position and weather

sailwx.info

Track history (hours):
 
Tides and Currents Weather Stations Pressure Air Temp Water Temp Dewpoint Dewpoint Depression Visibility Wind Speed Wind Dir Waves Ship Positions

Yahata Maru

Last reported at 2015-Mar-26 21:34 UTC. Time now 2015-Mar-26 22:34 UTC.
Position N 34°09' E 134°60'.

Length 149 m; draft 4.7 m.

Type: Other ship. MMSI: 431400594.

Date/timePositionNaut miles runAvg speedWind from/ knotsBaromVisibWave heightAir tempDewpointWater temp
2015-Mar-26 21:34N 34°09' E 134°60'10 9.3
2015-Mar-26 20:32N 33°59' E 135°00'183 5.7
2015-Mar-25 12:19N 34°35' E 138°38'50 8.6
2015-Mar-25 06:33N 35°01' E 139°29'9 9.0
2015-Mar-25 05:33N 35°06' E 139°39'10 9.7
2015-Mar-25 04:33N 35°13' E 139°46'10 9.7
2015-Mar-25 03:33N 35°22' E 139°42'6 5.8
2015-Mar-25 02:31N 35°28' E 139°43'0 0.0
2015-Mar-25 01:31N 35°28' E 139°43'0 0.0
2015-Mar-25 00:28N 35°28' E 139°43'1 1.6
2015-Mar-24 23:33N 35°27' E 139°44'8 7.7
2015-Mar-24 22:33N 35°30' E 139°53'8 8.1
2015-Mar-24 21:33N 35°34' E 140°02'4 4.1
2015-Mar-24 20:29N 35°33' E 140°07'0 0.0
2015-Mar-24 19:32N 35°33' E 140°07'0 0.0
2015-Mar-24 18:29N 35°33' E 140°07'0 0.0
2015-Mar-24 17:26N 35°33' E 140°07'0 0.0
2015-Mar-24 16:08N 35°33' E 140°07'0 0.0
2015-Mar-24 15:29N 35°33' E 140°07'0 0.0
2015-Mar-24 14:32N 35°33' E 140°07'0 0.0
2015-Mar-24 13:32N 35°33' E 140°07'0 0.0
2015-Mar-24 12:29N 35°33' E 140°07'0 0.0
2015-Mar-24 11:29N 35°33' E 140°07'3 3.2
2015-Mar-24 10:33N 35°33' E 140°03'9 9.2
2015-Mar-24 09:33N 35°29' E 139°53'10 9.5
2015-Mar-24 08:33N 35°25' E 139°43'4 3.8
2015-Mar-24 07:31N 35°23' E 139°38'0 0.0
2015-Mar-24 06:31N 35°23' E 139°38'1 1.3
2015-Mar-24 05:34N 35°24' E 139°40'3 2.6
2015-Mar-24 04:33N 35°22' E 139°42'9 8.7
2015-Mar-24 03:33N 35°14' E 139°47'7 6.9
2015-Mar-24 02:33N 35°07' E 139°45'7 6.6
2015-Mar-24 01:33N 35°03' E 139°40'8 7.3
2015-Mar-24 00:27N 34°58' E 139°32'  
2015-Mar-19 05:33N 34°36' E 134°53'7 6.7
2015-Mar-19 04:33N 34°37' E 135°00'5 5.1
2015-Mar-19 03:33N 34°36' E 135°06'9 9.2
2015-Mar-19 02:34N 34°36' E 135°17'7 6.6
2015-Mar-19 01:33N 34°35' E 135°26'0 0.0
2015-Mar-19 00:24N 34°35' E 135°26'1 1.1
2015-Mar-18 23:33N 34°36' E 135°25'6 5.5
2015-Mar-18 22:31N 34°41' E 135°21'1 1.1
2015-Mar-18 21:32N 34°41' E 135°20'0 0.0
2015-Mar-18 20:32N 34°42' E 135°20'0 0.0
2015-Mar-18 19:26N 34°42' E 135°20'0 0.0
2015-Mar-18 18:32N 34°42' E 135°20'0 0.0
2015-Mar-18 17:32N 34°42' E 135°20'0 0.0
2015-Mar-18 16:26N 34°42' E 135°20'0 0.1
2015-Mar-18 15:33N 34°42' E 135°20'2 1.7
2015-Mar-18 14:33N 34°43' E 135°21'0 0.0
2015-Mar-18 13:33N 34°43' E 135°21'0 0.0
2015-Mar-18 12:33N 34°43' E 135°21'0 0.0
2015-Mar-18 11:33N 34°43' E 135°21'0 0.0
2015-Mar-18 10:27N 34°43' E 135°21'0 0.0
2015-Mar-18 09:33N 34°43' E 135°21'0 0.0
2015-Mar-18 08:33N 34°43' E 135°21'0 0.0
2015-Mar-18 07:27N 34°43' E 135°21'0 0.0
2015-Mar-18 06:21N 34°43' E 135°21'0 0.0
2015-Mar-18 05:33N 34°43' E 135°21'0 0.0
2015-Mar-18 04:33N 34°43' E 135°21'0 0.0
2015-Mar-18 03:33N 34°43' E 135°21'0 0.0
2015-Mar-18 02:21N 34°43' E 135°21'0 0.0
2015-Mar-18 01:33N 34°43' E 135°21'0 0.0
2015-Mar-18 00:33N 34°43' E 135°21'0 0.0
2015-Mar-17 23:33N 34°43' E 135°21'0 0.0
2015-Mar-17 22:27N 34°43' E 135°21'0 0.0
2015-Mar-17 21:33N 34°43' E 135°21'0 0.0
2015-Mar-17 20:33N 34°43' E 135°21'0 0.1
2015-Mar-17 19:33N 34°43' E 135°21'7 6.7
2015-Mar-17 18:33N 34°37' E 135°18'10 9.6
2015-Mar-17 17:33N 34°29' E 135°11'9 8.7
2015-Mar-17 16:32N 34°22' E 135°04'8 8.2
2015-Mar-17 15:33N 34°15' E 134°59'8 8.1
2015-Mar-17 14:33N 34°07' E 135°00'  
Track history (hours):
 
Tides and Currents Weather Stations Pressure Air Temp Water Temp Dewpoint Dewpoint Depression Visibility Wind Speed Wind Dir Waves Ship Positions

Yahata Maru

Last reported at 2015-Mar-26 21:34 UTC. Time now 2015-Mar-26 22:34 UTC.
Position N 34°09' E 134°60'.

Length 149 m; draft 4.7 m.

Type: Other ship. MMSI: 431400594.

Date/timePositionNaut miles runAvg speedWind from/ knotsBaromVisibWave heightAir tempDewpointWater temp
2015-Mar-26 21:34N 34°09' E 134°60'10 9.3
2015-Mar-26 20:32N 33°59' E 135°00'183 5.7
2015-Mar-25 12:19N 34°35' E 138°38'50 8.6
2015-Mar-25 06:33N 35°01' E 139°29'9 9.0
2015-Mar-25 05:33N 35°06' E 139°39'10 9.7
2015-Mar-25 04:33N 35°13' E 139°46'10 9.7
2015-Mar-25 03:33N 35°22' E 139°42'6 5.8
2015-Mar-25 02:31N 35°28' E 139°43'0 0.0
2015-Mar-25 01:31N 35°28' E 139°43'0 0.0
2015-Mar-25 00:28N 35°28' E 139°43'1 1.6
2015-Mar-24 23:33N 35°27' E 139°44'8 7.7
2015-Mar-24 22:33N 35°30' E 139°53'8 8.1
2015-Mar-24 21:33N 35°34' E 140°02'4 4.1
2015-Mar-24 20:29N 35°33' E 140°07'0 0.0
2015-Mar-24 19:32N 35°33' E 140°07'0 0.0
2015-Mar-24 18:29N 35°33' E 140°07'0 0.0
2015-Mar-24 17:26N 35°33' E 140°07'0 0.0
2015-Mar-24 16:08N 35°33' E 140°07'0 0.0
2015-Mar-24 15:29N 35°33' E 140°07'0 0.0
2015-Mar-24 14:32N 35°33' E 140°07'0 0.0
2015-Mar-24 13:32N 35°33' E 140°07'0 0.0
2015-Mar-24 12:29N 35°33' E 140°07'0 0.0
2015-Mar-24 11:29N 35°33' E 140°07'3 3.2
2015-Mar-24 10:33N 35°33' E 140°03'9 9.2
2015-Mar-24 09:33N 35°29' E 139°53'10 9.5
2015-Mar-24 08:33N 35°25' E 139°43'4 3.8
2015-Mar-24 07:31N 35°23' E 139°38'0 0.0
2015-Mar-24 06:31N 35°23' E 139°38'1 1.3
2015-Mar-24 05:34N 35°24' E 139°40'3 2.6
2015-Mar-24 04:33N 35°22' E 139°42'9 8.7
2015-Mar-24 03:33N 35°14' E 139°47'7 6.9
2015-Mar-24 02:33N 35°07' E 139°45'7 6.6
2015-Mar-24 01:33N 35°03' E 139°40'8 7.3
2015-Mar-24 00:27N 34°58' E 139°32'  
2015-Mar-19 05:33N 34°36' E 134°53'7 6.7
2015-Mar-19 04:33N 34°37' E 135°00'5 5.1
2015-Mar-19 03:33N 34°36' E 135°06'9 9.2
2015-Mar-19 02:34N 34°36' E 135°17'7 6.6
2015-Mar-19 01:33N 34°35' E 135°26'0 0.0
2015-Mar-19 00:24N 34°35' E 135°26'1 1.1
2015-Mar-18 23:33N 34°36' E 135°25'6 5.5
2015-Mar-18 22:31N 34°41' E 135°21'1 1.1
2015-Mar-18 21:32N 34°41' E 135°20'0 0.0
2015-Mar-18 20:32N 34°42' E 135°20'0 0.0
2015-Mar-18 19:26N 34°42' E 135°20'0 0.0
2015-Mar-18 18:32N 34°42' E 135°20'0 0.0
2015-Mar-18 17:32N 34°42' E 135°20'0 0.0
2015-Mar-18 16:26N 34°42' E 135°20'0 0.1
2015-Mar-18 15:33N 34°42' E 135°20'2 1.7
2015-Mar-18 14:33N 34°43' E 135°21'0 0.0
2015-Mar-18 13:33N 34°43' E 135°21'0 0.0
2015-Mar-18 12:33N 34°43' E 135°21'0 0.0
2015-Mar-18 11:33N 34°43' E 135°21'0 0.0
2015-Mar-18 10:27N 34°43' E 135°21'0 0.0
2015-Mar-18 09:33N 34°43' E 135°21'0 0.0
2015-Mar-18 08:33N 34°43' E 135°21'0 0.0
2015-Mar-18 07:27N 34°43' E 135°21'0 0.0
2015-Mar-18 06:21N 34°43' E 135°21'0 0.0
2015-Mar-18 05:33N 34°43' E 135°21'0 0.0
2015-Mar-18 04:33N 34°43' E 135°21'0 0.0
2015-Mar-18 03:33N 34°43' E 135°21'0 0.0
2015-Mar-18 02:21N 34°43' E 135°21'0 0.0
2015-Mar-18 01:33N 34°43' E 135°21'0 0.0
2015-Mar-18 00:33N 34°43' E 135°21'0 0.0
2015-Mar-17 23:33N 34°43' E 135°21'0 0.0
2015-Mar-17 22:27N 34°43' E 135°21'0 0.0
2015-Mar-17 21:33N 34°43' E 135°21'0 0.0
2015-Mar-17 20:33N 34°43' E 135°21'0 0.1
2015-Mar-17 19:33N 34°43' E 135°21'7 6.7
2015-Mar-17 18:33N 34°37' E 135°18'10 9.6
2015-Mar-17 17:33N 34°29' E 135°11'9 8.7
2015-Mar-17 16:32N 34°22' E 135°04'8 8.2
2015-Mar-17 15:33N 34°15' E 134°59'8 8.1
2015-Mar-17 14:33N 34°07' E 135°00'  

Dump ship's entire track history